createdAt,value
2017-09-07T00:00:16.757Z,13.5
2017-09-07T00:01:15.938Z,13.5
2017-09-07T00:02:15.126Z,13.5
2017-09-07T00:03:14.443Z,13.5
2017-09-07T00:04:13.758Z,13.5
2017-09-07T00:05:12.566Z,13.5
2017-09-07T00:06:11.888Z,13.5
2017-09-07T00:07:11.204Z,13.5
2017-09-07T00:08:10.518Z,13.5
2017-09-07T00:09:09.459Z,13.5
2017-09-07T00:10:08.773Z,13.5
2017-09-07T00:12:07.498Z,13.5
2017-09-07T00:13:06.302Z,13.5
2017-09-07T00:14:06.002Z,13.5
2017-09-07T00:15:05.316Z,13.5
2017-09-07T00:16:04.002Z,13.4
2017-09-07T00:17:03.445Z,13.3
2017-09-07T00:18:02.770Z,13.3
2017-09-07T00:19:01.961Z,13.4
2017-09-07T00:20:01.424Z,13.4
2017-09-07T00:21:00.385Z,13.4
2017-09-07T00:21:59.722Z,13.4
2017-09-07T00:22:58.649Z,13.4
2017-09-07T00:23:58.472Z,13.4
2017-09-07T00:24:57.037Z,13.4
2017-09-07T00:25:56.353Z,13.4
2017-09-07T00:26:55.549Z,13.4
2017-09-07T00:27:26.438Z,13.4
2017-09-07T00:27:56.438Z,13.4
2017-09-07T00:28:27.072Z,13.4
2017-09-07T00:28:57.209Z,13.4
2017-09-07T00:29:27.568Z,13.4
2017-09-07T00:30:52.673Z,13.4
2017-09-07T00:31:51.998Z,13.4
2017-09-07T00:32:51.195Z,13.4
2017-09-07T00:33:50.689Z,13.4
2017-09-07T00:34:49.881Z,13.4
2017-09-07T00:35:48.555Z,13.4
2017-09-07T00:36:48.242Z,13.3
2017-09-07T00:37:47.810Z,13.3
2017-09-07T00:38:46.497Z,13.3
2017-09-07T00:39:46.061Z,13.3
2017-09-07T00:40:44.773Z,13.3
2017-09-07T00:41:44.267Z,13.3
2017-09-07T00:43:42.463Z,13.3
2017-09-07T00:44:41.528Z,13.3
2017-09-07T00:45:41.337Z,13.3
2017-09-07T00:46:40.290Z,13.3
2017-09-07T00:47:39.472Z,13.3
2017-09-07T00:48:38.783Z,13.3
2017-09-07T00:49:38.274Z,13.3
2017-09-07T00:50:36.955Z,13.3
2017-09-07T00:51:36.257Z,13.3
2017-09-07T00:53:35.088Z,13.3
2017-09-07T00:54:34.029Z,13.3
2017-09-07T00:55:33.084Z,13.3
2017-09-07T00:56:32.774Z,13.2
2017-09-07T00:57:31.336Z,13.2
2017-09-07T00:58:31.284Z,13.2
2017-09-07T00:59:30.346Z,13.2
2017-09-07T01:00:29.664Z,13.2
2017-09-07T01:01:28.479Z,13.2
2017-09-07T01:02:27.793Z,13.2
2017-09-07T01:03:27.216Z,13.2
2017-09-07T01:04:26.664Z,13.2
2017-09-07T01:05:25.480Z,13.2
2017-09-07T01:06:24.789Z,13.1
2017-09-07T01:07:23.954Z,13.1
2017-09-07T01:08:23.377Z,13.1
2017-09-07T01:09:22.421Z,13.1
2017-09-07T01:10:21.712Z,13.1
2017-09-07T01:11:21.012Z,13.1
2017-09-07T01:12:20.459Z,13.1
2017-09-07T01:14:18.517Z,13.2
2017-09-07T01:15:17.814Z,13.2
2017-09-07T01:16:17.115Z,13.2
2017-09-07T01:17:16.040Z,13.2
2017-09-07T01:18:15.341Z,13.2
2017-09-07T01:19:14.523Z,13.2
2017-09-07T01:20:13.698Z,13.2
2017-09-07T01:20:43.934Z,13.2
2017-09-07T01:21:14.671Z,13.2
2017-09-07T01:21:44.902Z,13.2
2017-09-07T01:22:15.082Z,13.1
2017-09-07T01:23:11.362Z,13.1
2017-09-07T01:24:10.790Z,13.1
2017-09-07T01:25:09.838Z,13.1
2017-09-07T01:26:09.137Z,13.1
2017-09-07T01:27:08.562Z,13.1
2017-09-07T01:28:07.734Z,13.1
2017-09-07T01:29:06.781Z,13
2017-09-07T01:30:06.202Z,13
2017-09-07T01:31:05.373Z,13
2017-09-07T01:32:04.801Z,13
2017-09-07T01:33:03.983Z,13
2017-09-07T01:34:02.904Z,13
2017-09-07T01:35:02.211Z,13
2017-09-07T01:37:00.773Z,13
2017-09-07T01:37:59.946Z,13
2017-09-07T01:38:58.994Z,13
2017-09-07T01:39:58.165Z,13
2017-09-07T01:40:57.337Z,13
2017-09-07T01:41:56.266Z,13.1
2017-09-07T01:42:56.195Z,13.1
2017-09-07T01:43:55.121Z,13.1
2017-09-07T01:46:52.819Z,13.1
2017-09-07T01:47:51.865Z,13.1
2017-09-07T01:48:51.291Z,13.1
2017-09-07T01:51:48.608Z,13
2017-09-07T01:52:48.045Z,13.1
2017-09-07T01:53:47.473Z,13.1
2017-09-07T01:54:46.901Z,13.1
2017-09-07T01:55:45.445Z,13.1
2017-09-07T01:56:45.253Z,13.1
2017-09-07T01:57:44.051Z,13.1
2017-09-07T01:58:43.474Z,13.1
2017-09-07T01:59:42.777Z,13
2017-09-07T02:00:42.196Z,13
2017-09-07T02:01:40.986Z,13
2017-09-07T02:02:40.152Z,13
2017-09-07T02:03:39.458Z,13.1
2017-09-07T02:05:38.021Z,13
2017-09-07T02:06:36.958Z,13
2017-09-07T02:07:36.513Z,13
2017-09-07T02:08:36.055Z,13
2017-09-07T02:09:34.985Z,13
2017-09-07T02:10:34.153Z,13
2017-09-07T02:11:33.333Z,13
2017-09-07T02:12:32.500Z,13
2017-09-07T02:13:31.920Z,13
2017-09-07T02:14:30.587Z,13
2017-09-07T02:15:29.890Z,12.9
2017-09-07T02:16:29.318Z,12.9
2017-09-07T02:17:28.489Z,12.9
2017-09-07T02:18:27.661Z,12.9
2017-09-07T02:19:26.840Z,12.9
2017-09-07T02:20:26.265Z,13
2017-09-07T02:22:24.580Z,12.9
2017-09-07T02:23:23.751Z,13
2017-09-07T02:25:22.441Z,13
2017-09-07T02:26:21.109Z,13
2017-09-07T02:27:20.916Z,13
2017-09-07T02:28:19.714Z,13
2017-09-07T02:30:18.277Z,13
2017-09-07T02:31:17.963Z,13
2017-09-07T02:32:16.769Z,13
2017-09-07T02:33:16.072Z,13
2017-09-07T02:34:14.988Z,13
2017-09-07T02:36:13.668Z,13
2017-09-07T02:37:13.226Z,13
2017-09-07T02:38:11.653Z,13
2017-09-07T02:39:10.891Z,13
2017-09-07T02:40:10.733Z,13
2017-09-07T02:41:09.943Z,13
2017-09-07T02:42:08.742Z,13
2017-09-07T02:43:08.042Z,13
2017-09-07T02:44:07.593Z,13
2017-09-07T02:45:06.647Z,13
2017-09-07T02:46:06.077Z,13
2017-09-07T02:47:04.618Z,13
2017-09-07T02:48:04.299Z,13
2017-09-07T02:49:03.602Z,13
2017-09-07T02:51:01.782Z,12.9
2017-09-07T02:52:00.956Z,12.9
2017-09-07T02:53:00.268Z,12.9
2017-09-07T02:54:58.449Z,12.9
2017-09-07T02:55:57.877Z,12.9
2017-09-07T02:56:57.042Z,12.9
2017-09-07T02:58:55.859Z,12.9
2017-09-07T02:59:55.031Z,12.9
2017-09-07T03:00:53.833Z,12.9
2017-09-07T03:01:53.130Z,12.9
2017-09-07T03:02:52.302Z,12.9
2017-09-07T03:03:51.352Z,12.9
2017-09-07T03:04:50.524Z,12.9
2017-09-07T03:05:50.330Z,12.9
2017-09-07T03:06:49.385Z,12.9
2017-09-07T03:08:47.575Z,13
2017-09-07T03:09:46.748Z,13
2017-09-07T03:10:45.672Z,13
2017-09-07T03:13:43.741Z,13
2017-09-07T03:14:42.918Z,13
2017-09-07T03:15:42.216Z,13
2017-09-07T03:16:41.637Z,13
2017-09-07T03:17:40.678Z,13
2017-09-07T03:18:40.117Z,13
2017-09-07T03:20:38.302Z,12.8
2017-09-07T03:21:37.732Z,12.8
2017-09-07T03:22:36.651Z,12.9
2017-09-07T03:23:35.829Z,12.9
2017-09-07T03:25:34.681Z,12.9
2017-09-07T03:26:33.602Z,12.9
2017-09-07T03:27:32.899Z,12.9
2017-09-07T03:28:32.320Z,12.9
2017-09-07T03:29:31.498Z,12.9
2017-09-07T03:30:30.653Z,12.9
2017-09-07T03:31:29.327Z,12.9
2017-09-07T03:32:29.016Z,12.9
2017-09-07T03:33:28.186Z,12.8
2017-09-07T03:34:27.486Z,12.8
2017-09-07T03:35:26.787Z,12.9
2017-09-07T03:36:25.843Z,12.9
2017-09-07T03:37:25.149Z,12.9
2017-09-07T03:38:24.324Z,12.9
2017-09-07T03:39:23.748Z,12.8
2017-09-07T03:40:22.669Z,12.8
2017-09-07T03:41:21.836Z,12.8
2017-09-07T03:42:21.007Z,12.8
2017-09-07T03:43:20.436Z,12.8
2017-09-07T03:44:19.736Z,12.8
2017-09-07T03:45:18.283Z,12.8
2017-09-07T03:46:17.959Z,12.9
2017-09-07T03:47:17.141Z,12.9
2017-09-07T03:48:16.562Z,12.9
2017-09-07T03:49:15.610Z,12.8
2017-09-07T03:50:15.029Z,12.8
2017-09-07T03:51:13.825Z,12.8
2017-09-07T03:52:13.380Z,12.8
2017-09-07T03:53:12.171Z,12.8
2017-09-07T03:54:11.601Z,12.8
2017-09-07T03:56:10.288Z,12.8
2017-09-07T03:57:09.345Z,12.8
2017-09-07T03:58:08.648Z,12.8
2017-09-07T03:59:07.944Z,12.8
2017-09-07T04:00:06.997Z,12.8
2017-09-07T04:01:06.293Z,12.8
2017-09-07T04:02:05.215Z,12.8
2017-09-07T04:04:04.157Z,12.8
2017-09-07T04:05:03.199Z,12.8
2017-09-07T04:06:02.496Z,12.8
2017-09-07T04:07:01.050Z,12.8
2017-09-07T04:08:00.609Z,12.7
2017-09-07T04:09:00.042Z,12.7
2017-09-07T04:09:58.832Z,12.7
2017-09-07T04:10:58.139Z,12.7
2017-09-07T04:11:57.440Z,12.7
2017-09-07T04:12:56.742Z,12.6
2017-09-07T04:13:55.789Z,12.6
2017-09-07T04:14:54.708Z,12.6
2017-09-07T04:15:54.009Z,12.6
2017-09-07T04:16:53.807Z,12.6
2017-09-07T04:17:52.862Z,12.6
2017-09-07T04:18:52.162Z,12.6
2017-09-07T04:19:51.209Z,12.6
2017-09-07T04:20:50.764Z,12.6
2017-09-07T04:21:49.304Z,12.6
2017-09-07T04:22:48.866Z,12.6
2017-09-07T04:23:48.047Z,12.6
2017-09-07T04:24:47.217Z,12.6
2017-09-07T04:25:46.779Z,12.6
2017-09-07T04:26:45.447Z,12.6
2017-09-07T04:27:44.881Z,12.6
2017-09-07T04:28:44.308Z,12.6
2017-09-07T04:29:43.481Z,12.6
2017-09-07T04:30:42.145Z,12.6
2017-09-07T04:31:41.689Z,12.6
2017-09-07T04:32:41.249Z,12.6
2017-09-07T04:33:40.300Z,12.6
2017-09-07T04:34:39.342Z,12.6
2017-09-07T04:35:38.640Z,12.6
2017-09-07T04:36:38.187Z,12.6
2017-09-07T04:37:37.115Z,12.6
2017-09-07T04:39:35.421Z,12.6
2017-09-07T04:40:34.723Z,12.6
2017-09-07T04:41:34.024Z,12.6
2017-09-07T04:42:33.069Z,12.6
2017-09-07T04:43:31.991Z,12.6
2017-09-07T04:44:31.296Z,12.6
2017-09-07T04:45:30.717Z,12.6
2017-09-07T04:46:30.262Z,12.6
2017-09-07T04:47:29.062Z,12.6
2017-09-07T04:48:28.484Z,12.6
2017-09-07T04:49:27.659Z,12.6
2017-09-07T04:50:27.208Z,12.6
2017-09-07T04:51:26.164Z,12.6
2017-09-07T04:52:24.709Z,12.6
2017-09-07T04:53:24.513Z,12.6
2017-09-07T04:54:23.561Z,12.6
2017-09-07T04:55:22.862Z,12.6
2017-09-07T04:56:22.154Z,12.6
2017-09-07T04:57:21.207Z,12.6
2017-09-07T04:58:20.510Z,12.6
2017-09-07T04:59:19.684Z,12.6
2017-09-07T05:01:17.745Z,12.6
2017-09-07T05:02:17.297Z,12.6
2017-09-07T05:03:16.594Z,12.6
2017-09-07T05:04:15.766Z,12.6
2017-09-07T05:05:14.941Z,12.6
2017-09-07T05:06:13.736Z,12.6
2017-09-07T05:07:13.407Z,12.6
2017-09-07T05:08:12.586Z,12.6
2017-09-07T05:10:10.774Z,12.6
2017-09-07T05:11:10.075Z,12.7
2017-09-07T05:13:08.389Z,12.7
2017-09-07T05:14:07.437Z,12.7
2017-09-07T05:15:06.992Z,12.7
2017-09-07T05:16:05.921Z,12.7
2017-09-07T05:17:04.967Z,12.7
2017-09-07T05:18:04.526Z,12.7
2017-09-07T05:19:03.822Z,12.8
2017-09-07T05:21:02.132Z,12.8
2017-09-07T05:22:01.307Z,12.8
2017-09-07T05:23:00.736Z,12.8
2017-09-07T05:24:00.029Z,12.8
2017-09-07T05:24:58.950Z,12.9
2017-09-07T05:25:58.369Z,12.9
2017-09-07T05:26:57.664Z,12.9
2017-09-07T05:27:56.833Z,12.9
2017-09-07T05:28:27.446Z,12.9
2017-09-07T05:29:54.930Z,12.9
2017-09-07T05:30:54.229Z,12.8
2017-09-07T05:31:53.529Z,12.8
2017-09-07T05:32:52.706Z,12.8
2017-09-07T05:33:52.002Z,12.8
2017-09-07T05:35:50.399Z,12.9
2017-09-07T05:37:48.840Z,12.9
2017-09-07T05:40:46.291Z,13
2017-09-07T05:41:45.335Z,13
2017-09-07T05:42:44.507Z,13
2017-09-07T05:43:43.811Z,13
2017-09-07T05:44:43.497Z,13.1
2017-09-07T05:45:42.418Z,13.3
2017-09-07T05:46:41.842Z,13.3
2017-09-07T05:47:41.017Z,13.3
2017-09-07T05:48:40.314Z,13.4
2017-09-07T05:49:39.483Z,13.4
2017-09-07T05:50:38.910Z,13.5
2017-09-07T05:51:37.715Z,13.5
2017-09-07T05:52:36.772Z,13.5
2017-09-07T05:53:36.078Z,13.5
2017-09-07T05:54:35.381Z,13.8
2017-09-07T05:55:34.427Z,14.1
2017-09-07T05:56:33.726Z,14.1
2017-09-07T05:57:33.029Z,14.1
2017-09-07T05:58:32.327Z,14.1
2017-09-07T05:59:31.752Z,14
2017-09-07T06:00:30.299Z,13.8
2017-09-07T06:01:29.604Z,13.8
2017-09-07T06:02:28.786Z,13.7
2017-09-07T06:03:28.463Z,13.6
2017-09-07T06:03:59.077Z,13.6
2017-09-07T06:05:27.062Z,13.5
2017-09-07T06:06:25.604Z,13.5
2017-09-07T06:07:25.279Z,13.5
2017-09-07T06:08:24.592Z,13.5
2017-09-07T06:09:23.535Z,13.5
2017-09-07T06:10:22.578Z,13.5
2017-09-07T06:11:21.747Z,13.5
2017-09-07T06:12:21.428Z,13.5
2017-09-07T06:13:20.728Z,13.6
2017-09-07T06:14:19.655Z,13.6
2017-09-07T06:15:19.217Z,13.6
2017-09-07T06:16:17.763Z,13.7
2017-09-07T06:17:17.442Z,13.8
2017-09-07T06:19:15.504Z,13.9
2017-09-07T06:20:15.315Z,13.9
2017-09-07T06:21:13.859Z,13.8
2017-09-07T06:22:13.785Z,13.8
2017-09-07T06:23:12.578Z,13.7
2017-09-07T06:24:12.005Z,13.7
2017-09-07T06:25:11.053Z,13.4
2017-09-07T06:26:10.476Z,13.3
2017-09-07T06:27:09.269Z,13.3
2017-09-07T06:29:07.995Z,13.2
2017-09-07T06:30:07.426Z,13.2
2017-09-07T06:31:06.228Z,13.3
2017-09-07T06:32:05.534Z,13.2
2017-09-07T06:33:04.587Z,13.1
2017-09-07T06:34:04.016Z,13
2017-09-07T06:35:03.321Z,13
2017-09-07T06:36:02.513Z,12.7
2017-09-07T06:37:01.559Z,12.5
2017-09-07T06:38:00.862Z,12.4
2017-09-07T06:39:00.032Z,12.4
2017-09-07T06:39:59.082Z,12.3
2017-09-07T06:40:58.128Z,12.3
2017-09-07T06:41:57.680Z,12.3
2017-09-07T06:42:56.861Z,12.3
2017-09-07T06:43:56.166Z,12.3
2017-09-07T06:44:26.653Z,12.3
2017-09-07T06:44:57.261Z,12.2
2017-09-07T06:45:27.627Z,12.2
2017-09-07T06:46:53.851Z,12.3
2017-09-07T06:48:52.555Z,12.3
2017-09-07T06:49:51.225Z,12.3
2017-09-07T06:50:50.780Z,12.3
2017-09-07T06:51:50.202Z,12.3
2017-09-07T06:52:49.004Z,12.3
2017-09-07T06:53:48.180Z,12.5
2017-09-07T06:54:47.357Z,12.5
2017-09-07T06:55:47.039Z,12.4
2017-09-07T06:56:45.959Z,12.5
2017-09-07T06:57:45.384Z,12.5
2017-09-07T06:58:44.304Z,12.5
2017-09-07T06:59:43.721Z,12.5
2017-09-07T07:00:43.020Z,12.5
2017-09-07T07:01:42.436Z,12.5
2017-09-07T07:02:41.113Z,12.5
2017-09-07T07:03:40.284Z,12.5
2017-09-07T07:04:39.845Z,12.5
2017-09-07T07:05:38.769Z,12.6
2017-09-07T07:06:37.815Z,12.6
2017-09-07T07:07:37.397Z,12.6
2017-09-07T07:08:36.334Z,12.6
2017-09-07T07:09:35.639Z,12.6
2017-09-07T07:10:34.814Z,12.6
2017-09-07T07:11:34.242Z,12.6
2017-09-07T07:12:33.669Z,12.7
2017-09-07T07:13:32.469Z,12.8
2017-09-07T07:14:31.900Z,12.9
2017-09-07T07:15:31.328Z,13
2017-09-07T07:16:30.256Z,13.1
2017-09-07T07:17:29.428Z,13.1
2017-09-07T07:18:28.599Z,13.1
2017-09-07T07:19:28.027Z,13.1
2017-09-07T07:20:26.817Z,13.1
2017-09-07T07:21:26.236Z,13.1
2017-09-07T07:22:25.792Z,13.1
2017-09-07T07:23:24.588Z,12.8
2017-09-07T07:24:23.905Z,12.9
2017-09-07T07:25:22.937Z,12.8
2017-09-07T07:26:22.242Z,12.8
2017-09-07T07:27:21.549Z,12.7
2017-09-07T07:29:20.230Z,12.9
2017-09-07T07:31:18.540Z,12.9
2017-09-07T07:32:17.720Z,13
2017-09-07T07:33:16.895Z,13.3
2017-09-07T07:34:16.454Z,13.5
2017-09-07T07:35:15.127Z,13.6
2017-09-07T07:36:14.296Z,13.6
2017-09-07T07:37:13.475Z,13.6
2017-09-07T07:38:13.289Z,13.6
2017-09-07T07:39:11.960Z,13.6
2017-09-07T07:40:11.136Z,13.6
2017-09-07T07:41:10.817Z,13.5
2017-09-07T07:42:10.117Z,13.8
2017-09-07T07:43:09.290Z,14
2017-09-07T07:44:08.586Z,14.1
2017-09-07T07:45:07.385Z,14.2
2017-09-07T07:46:06.561Z,14.1
2017-09-07T07:47:05.875Z,14.1
2017-09-07T07:48:05.169Z,14
2017-09-07T07:49:04.346Z,14
2017-09-07T07:50:03.772Z,14
2017-09-07T07:51:02.947Z,14
2017-09-07T07:52:02.258Z,14
2017-09-07T07:53:01.816Z,13.9
2017-09-07T07:54:00.743Z,13.8
2017-09-07T07:54:59.537Z,13.8
2017-09-07T07:55:59.092Z,13.8
2017-09-07T07:56:58.140Z,13.8
2017-09-07T07:57:57.309Z,13.8
2017-09-07T07:58:56.606Z,13.8
2017-09-07T07:59:55.777Z,13.9
2017-09-07T08:00:55.072Z,13.8
2017-09-07T08:01:54.249Z,13.8
2017-09-07T08:02:53.432Z,13.7
2017-09-07T08:03:52.613Z,13.7
2017-09-07T08:04:52.289Z,13.7
2017-09-07T08:05:51.472Z,13.6
2017-09-07T08:06:50.271Z,13.5
2017-09-07T08:07:49.578Z,13.5
2017-09-07T08:08:49.137Z,13.3
2017-09-07T08:09:48.063Z,13.2
2017-09-07T08:10:47.236Z,13.1
2017-09-07T08:11:46.910Z,13.1
2017-09-07T08:12:45.961Z,13.1
2017-09-07T08:13:45.009Z,13.1
2017-09-07T08:14:44.451Z,13.1
2017-09-07T08:15:43.878Z,13.1
2017-09-07T08:16:42.673Z,13.1
2017-09-07T08:17:41.967Z,13.1
2017-09-07T08:18:41.396Z,13.2
2017-09-07T08:19:40.696Z,13.2
2017-09-07T08:20:39.738Z,13.3
2017-09-07T08:21:39.044Z,13.4
2017-09-07T08:22:38.348Z,13.5
2017-09-07T08:23:37.519Z,13.6
2017-09-07T08:24:36.816Z,13.6
2017-09-07T08:25:35.485Z,13.7
2017-09-07T08:26:35.072Z,13.8
2017-09-07T08:27:34.254Z,13.6
2017-09-07T08:28:33.560Z,13.7
2017-09-07T08:29:32.859Z,13.8
2017-09-07T08:30:32.406Z,13.9
2017-09-07T08:31:31.205Z,13.9
2017-09-07T08:32:30.507Z,13.9
2017-09-07T08:33:30.063Z,13.9
2017-09-07T08:34:28.733Z,13.9
2017-09-07T08:35:28.043Z,13.9
2017-09-07T08:36:27.230Z,13.9
2017-09-07T08:37:26.536Z,13.8
2017-09-07T08:38:25.841Z,13.8
2017-09-07T08:39:25.400Z,13.8
2017-09-07T08:40:24.579Z,13.8
2017-09-07T08:41:23.377Z,14
2017-09-07T08:42:22.806Z,14.1
2017-09-07T08:43:22.107Z,14.2
2017-09-07T08:44:21.531Z,14.3
2017-09-07T08:45:20.464Z,14.6
2017-09-07T08:47:18.648Z,15
2017-09-07T08:48:18.203Z,15.1
2017-09-07T08:49:17.505Z,15.2
2017-09-07T08:50:16.809Z,15.2
2017-09-07T08:51:15.733Z,15.2
2017-09-07T08:52:15.412Z,15.3
2017-09-07T08:54:13.972Z,15.1
2017-09-07T08:55:12.895Z,15.1
2017-09-07T08:56:12.194Z,15.1
2017-09-07T08:57:11.500Z,15.1
2017-09-07T08:59:09.820Z,15.2
2017-09-07T09:00:09.498Z,15.3
2017-09-07T09:01:08.168Z,15.3
2017-09-07T09:02:07.852Z,15.4
2017-09-07T09:04:06.043Z,15.4
2017-09-07T09:05:05.342Z,15.4
2017-09-07T09:06:04.904Z,15.5
2017-09-07T09:09:02.234Z,15.5
2017-09-07T09:10:01.418Z,15.6
2017-09-07T09:11:00.719Z,15.6
2017-09-07T09:12:00.028Z,15.5
2017-09-07T09:12:59.332Z,15.5
2017-09-07T09:13:58.630Z,15.5
2017-09-07T09:14:57.937Z,15.4
2017-09-07T09:15:57.241Z,15.5
2017-09-07T09:16:56.543Z,15.5
2017-09-07T09:17:55.581Z,15.5
2017-09-07T09:20:53.159Z,15.5
2017-09-07T09:21:52.332Z,15.4
2017-09-07T09:22:51.879Z,15.4
2017-09-07T09:23:51.056Z,15.2
2017-09-07T09:24:50.355Z,15.2
2017-09-07T09:25:49.282Z,15.2
2017-09-07T09:26:49.346Z,15.1
2017-09-07T09:27:48.188Z,15.1
2017-09-07T09:28:47.615Z,15.1
2017-09-07T09:29:46.429Z,15.1
2017-09-07T09:30:45.988Z,15.2
2017-09-07T09:31:45.166Z,15.3
2017-09-07T09:32:44.217Z,15.3
2017-09-07T09:33:43.520Z,15.3
2017-09-07T09:34:43.074Z,15.3
2017-09-07T09:35:42.499Z,15.4
2017-09-07T09:36:41.294Z,15.3
2017-09-07T09:37:40.596Z,15.4
2017-09-07T09:38:39.773Z,15.5
2017-09-07T09:39:38.830Z,15.5
2017-09-07T09:40:38.521Z,15.6
2017-09-07T09:41:37.692Z,15.6
2017-09-07T09:42:36.811Z,15.6
2017-09-07T09:43:36.115Z,15.6
2017-09-07T09:44:35.666Z,15.6
2017-09-07T09:45:34.471Z,15.6
2017-09-07T09:46:33.902Z,15.6
2017-09-07T09:47:33.077Z,15.6
2017-09-07T09:48:32.251Z,15.6
2017-09-07T09:49:31.679Z,15.7
2017-09-07T09:50:31.109Z,15.6
2017-09-07T09:51:30.535Z,15.8
2017-09-07T09:52:29.465Z,15.8
2017-09-07T09:53:28.767Z,15.8
2017-09-07T09:54:28.068Z,15.8
2017-09-07T09:55:27.378Z,15.8
2017-09-07T09:56:26.554Z,15.8
2017-09-07T09:57:25.731Z,15.9
2017-09-07T09:58:25.160Z,16
2017-09-07T09:59:24.478Z,16
2017-09-07T10:00:23.660Z,16.1
2017-09-07T10:01:22.701Z,16.1
2017-09-07T10:02:22.124Z,16
2017-09-07T10:03:21.299Z,16.1
2017-09-07T10:04:20.726Z,16.1
2017-09-07T10:05:20.157Z,16.1
2017-09-07T10:06:19.203Z,16.2
2017-09-07T10:07:18.507Z,16.3
2017-09-07T10:08:17.840Z,16.3
2017-09-07T10:09:17.106Z,16.3
2017-09-07T10:10:16.279Z,16.3
2017-09-07T10:11:15.837Z,16.3
2017-09-07T10:12:14.757Z,16.3
2017-09-07T10:12:45.118Z,16.3
2017-09-07T10:14:13.622Z,16.3
2017-09-07T10:15:12.415Z,16.3
2017-09-07T10:16:11.871Z,16.3
2017-09-07T10:17:11.421Z,16.3
2017-09-07T10:19:09.726Z,16.3
2017-09-07T10:20:09.025Z,16.3
2017-09-07T10:21:08.454Z,16.5
2017-09-07T10:22:07.377Z,16.5
2017-09-07T10:23:07.184Z,16.6
2017-09-07T10:24:06.113Z,16.6
2017-09-07T10:25:05.586Z,16.8
2017-09-07T10:26:04.760Z,16.8
2017-09-07T10:27:04.062Z,16.8
2017-09-07T10:28:02.991Z,16.8
2017-09-07T10:29:02.546Z,16.8
2017-09-07T10:30:02.101Z,16.8
2017-09-07T10:31:00.775Z,16.7
2017-09-07T10:32:00.577Z,16.6
2017-09-07T10:32:59.504Z,16.6
2017-09-07T10:33:58.925Z,16.5
2017-09-07T10:34:58.365Z,16.5
2017-09-07T10:35:57.788Z,16.5
2017-09-07T10:36:56.834Z,16.5
2017-09-07T10:37:56.386Z,16.5
2017-09-07T10:38:55.055Z,16.5
2017-09-07T10:39:54.479Z,16.5
2017-09-07T10:40:53.779Z,16.6
2017-09-07T10:41:52.824Z,16.6
2017-09-07T10:42:52.374Z,16.6
2017-09-07T10:43:51.813Z,16.5
2017-09-07T10:44:50.996Z,16.5
2017-09-07T10:45:50.165Z,16.5
2017-09-07T10:46:49.344Z,16.5
2017-09-07T10:47:48.768Z,16.6
2017-09-07T10:48:47.694Z,16.6
2017-09-07T10:49:47.375Z,16.5
2017-09-07T10:50:46.676Z,16.5
2017-09-07T10:51:46.104Z,16.5
2017-09-07T10:52:45.648Z,16.6
2017-09-07T10:53:44.192Z,16.7
2017-09-07T10:54:43.872Z,16.7
2017-09-07T10:57:41.445Z,16.9
2017-09-07T10:58:40.870Z,16.9
2017-09-07T10:59:40.307Z,16.8
2017-09-07T11:00:39.734Z,16.8
2017-09-07T11:01:39.164Z,16.8
2017-09-07T11:02:38.222Z,16.8
2017-09-07T11:03:37.516Z,16.8
2017-09-07T11:04:36.826Z,17
2017-09-07T11:05:07.088Z,17
2017-09-07T11:05:37.697Z,17
2017-09-07T11:06:08.066Z,17
2017-09-07T11:06:38.549Z,17
2017-09-07T11:07:34.463Z,17
2017-09-07T11:08:33.512Z,17
2017-09-07T11:09:33.318Z,17
2017-09-07T11:10:32.239Z,17
2017-09-07T11:11:31.667Z,17
2017-09-07T11:12:30.963Z,17
2017-09-07T11:13:30.272Z,17.1
2017-09-07T11:14:29.822Z,17.2
2017-09-07T11:15:28.621Z,17.1
2017-09-07T11:16:28.054Z,17.1
2017-09-07T11:17:27.229Z,17.1
2017-09-07T11:18:26.406Z,17.1
2017-09-07T11:19:25.960Z,17.1
2017-09-07T11:20:25.382Z,17.1
2017-09-07T11:21:24.812Z,17
2017-09-07T11:22:23.745Z,17
2017-09-07T11:23:23.177Z,17
2017-09-07T11:24:22.099Z,16.8
2017-09-07T11:25:21.647Z,16.8
2017-09-07T11:26:20.940Z,16.8
2017-09-07T11:27:20.242Z,16.8
2017-09-07T11:28:19.544Z,16.9
2017-09-07T11:29:19.230Z,16.9
2017-09-07T11:30:18.280Z,16.9
2017-09-07T11:31:17.207Z,16.9
2017-09-07T11:32:16.380Z,16.9
2017-09-07T11:33:15.807Z,17
2017-09-07T11:34:15.110Z,17
2017-09-07T11:35:14.671Z,17.1
2017-09-07T11:36:13.976Z,17.2
2017-09-07T11:37:13.017Z,17.1
2017-09-07T11:38:12.194Z,17.1
2017-09-07T11:39:11.755Z,17.1
2017-09-07T11:40:11.065Z,17
2017-09-07T11:41:10.485Z,17
2017-09-07T11:42:09.415Z,17.1
2017-09-07T11:43:08.841Z,17.1
2017-09-07T11:44:08.015Z,17.1
2017-09-07T11:45:07.692Z,17.1
2017-09-07T11:46:06.615Z,17.1
2017-09-07T11:47:05.921Z,17.1
2017-09-07T11:48:05.469Z,17.1
2017-09-07T11:49:04.270Z,17.1
2017-09-07T11:50:03.574Z,17
2017-09-07T11:51:02.872Z,17
2017-09-07T11:52:02.173Z,17.1
2017-09-07T11:53:01.850Z,17.1
2017-09-07T11:54:01.144Z,17.1
2017-09-07T11:55:00.069Z,17.1
2017-09-07T11:55:59.875Z,17.1
2017-09-07T11:56:58.673Z,17.1
2017-09-07T11:57:58.105Z,17.1
2017-09-07T11:58:57.663Z,17.1
2017-09-07T11:59:56.964Z,17
2017-09-07T12:00:55.765Z,17.1
2017-09-07T12:01:55.325Z,17.1
2017-09-07T12:02:54.497Z,17.1
2017-09-07T12:03:53.671Z,17
2017-09-07T12:05:52.489Z,17
2017-09-07T12:06:51.790Z,17.1
2017-09-07T12:07:51.473Z,17
2017-09-07T12:08:50.394Z,17
2017-09-07T12:09:49.957Z,17
2017-09-07T12:10:48.624Z,17.1
2017-09-07T12:11:48.177Z,17
2017-09-07T12:12:47.603Z,17
2017-09-07T12:14:46.422Z,17.1
2017-09-07T12:15:45.719Z,17.1
2017-09-07T12:17:43.902Z,17.3
2017-09-07T12:18:43.336Z,17.4
2017-09-07T12:19:42.513Z,17.5
2017-09-07T12:20:42.068Z,17.6
2017-09-07T12:24:39.328Z,17.8
2017-09-07T12:26:37.513Z,17.9
2017-09-07T12:27:36.559Z,17.9
2017-09-07T12:30:34.774Z,17.9
2017-09-07T12:31:34.069Z,17.9
2017-09-07T12:32:04.177Z,17.9
2017-09-07T12:32:34.923Z,17.9
2017-09-07T12:33:05.406Z,17.9
2017-09-07T12:33:35.645Z,18
2017-09-07T12:34:05.748Z,18
2017-09-07T12:35:31.340Z,18
2017-09-07T12:36:30.889Z,18
2017-09-07T12:37:30.189Z,18
2017-09-07T12:38:29.123Z,18
2017-09-07T12:39:28.547Z,18.1
2017-09-07T12:43:26.132Z,18
2017-09-07T12:44:25.054Z,18
2017-09-07T12:45:24.479Z,18
2017-09-07T12:46:23.910Z,18
2017-09-07T12:47:23.213Z,18
2017-09-07T12:49:22.032Z,18
2017-09-07T12:52:19.863Z,18
2017-09-07T12:53:18.663Z,17.9
2017-09-07T12:54:18.343Z,17.9
2017-09-07T12:56:16.909Z,17.9
2017-09-07T12:57:16.083Z,17.9
2017-09-07T12:58:15.393Z,17.9
2017-09-07T12:59:14.817Z,17.9
2017-09-07T13:00:14.249Z,17.9
2017-09-07T13:03:12.080Z,17.8
2017-09-07T13:04:11.060Z,17.9
2017-09-07T13:05:10.865Z,17.9
2017-09-07T13:06:10.412Z,17.9
2017-09-07T13:08:08.851Z,17.9
2017-09-07T13:09:08.037Z,17.9
2017-09-07T13:10:07.350Z,17.9
2017-09-07T13:11:06.907Z,17.9
2017-09-07T13:13:05.096Z,17.9
2017-09-07T13:14:04.393Z,17.8
2017-09-07T13:14:35.130Z,17.8
2017-09-07T13:15:05.366Z,17.8
2017-09-07T13:17:02.545Z,17.8
2017-09-07T13:18:01.726Z,17.8
2017-09-07T13:19:00.902Z,17.8
2017-09-07T13:20:00.338Z,17.8
2017-09-07T13:20:59.765Z,17.8
2017-09-07T13:22:58.504Z,17.8
2017-09-07T13:23:57.806Z,17.8
2017-09-07T13:24:56.982Z,17.8
2017-09-07T13:25:27.597Z,17.8
2017-09-07T13:27:55.106Z,18
2017-09-07T13:28:54.033Z,18
2017-09-07T13:29:53.711Z,18
2017-09-07T13:30:53.138Z,18.1
2017-09-07T13:31:52.438Z,18
2017-09-07T13:32:51.862Z,18
2017-09-07T13:33:50.925Z,18
2017-09-07T13:34:50.226Z,18
2017-09-07T13:36:48.793Z,18.1
2017-09-07T13:37:48.359Z,18.1
2017-09-07T13:40:45.937Z,18
2017-09-07T13:45:42.666Z,17.9
2017-09-07T13:47:41.360Z,18
2017-09-07T13:48:40.791Z,18
2017-09-07T13:49:39.971Z,18.1
2017-09-07T13:50:39.534Z,18.1
2017-09-07T13:51:38.333Z,18.1
2017-09-07T13:52:37.640Z,18.1
2017-09-07T13:53:37.070Z,18.2
2017-09-07T13:54:36.254Z,18.1
2017-09-07T13:55:36.201Z,18.1
2017-09-07T13:56:35.249Z,18.1
2017-09-07T13:57:34.681Z,18.1
2017-09-07T13:59:33.126Z,18
2017-09-07T14:01:31.942Z,18.1
2017-09-07T14:03:30.385Z,18
2017-09-07T14:04:29.576Z,18
2017-09-07T14:07:27.564Z,17.9
2017-09-07T14:08:26.872Z,17.9
2017-09-07T14:10:25.559Z,17.9
2017-09-07T14:11:24.990Z,17.9
2017-09-07T14:12:24.418Z,17.9
2017-09-07T14:13:23.590Z,18
2017-09-07T14:14:23.028Z,17.9
2017-09-07T14:15:22.328Z,17.8
2017-09-07T14:17:20.523Z,18
2017-09-07T14:18:20.587Z,18
2017-09-07T14:19:19.656Z,18.1
2017-09-07T14:20:18.836Z,18.1
2017-09-07T14:21:18.268Z,18.2
2017-09-07T14:21:48.258Z,18.2
2017-09-07T14:22:18.870Z,18.3
2017-09-07T14:22:49.238Z,18.3
2017-09-07T14:23:19.855Z,18.2
2017-09-07T14:24:16.017Z,18.2
2017-09-07T14:25:15.194Z,18.2
2017-09-07T14:26:14.635Z,18.1
2017-09-07T14:29:12.714Z,18.2
2017-09-07T14:30:12.139Z,18.3
2017-09-07T14:31:11.444Z,18.3
2017-09-07T14:32:10.743Z,18.3
2017-09-07T14:33:10.064Z,18.3